Terminal Aerodrome Forecast
Issued by NWS

Home | Current Version | Previous Version | Graphics & Text | Print | Product List | Glossary Off
Versions: 1 2 3 4 5 6 7 8 9 10 11 12 13 14 15 16

000
FTUS43 KIWX 012100 AAA
TAFSBN
TAF AMD
KSBN 012141Z 0122/0218 07014G22KT 1/2SM SN FZFG VV009
      TEMPO 0122/0124 1/4SM SN FZFG BLSN VV006
     FM020000 05016G26KT 3/4SM -SN BR BLSN VV006
     FM020400 01016G24KT 3SM -SN BLSN OVC015
     FM021000 35012G20KT P6SM OVC020=

USA.gov is the U.S. government's official web portal to all federal, state and local government web resources and services.